createdAt,value
2022-12-02T00:01:34.691Z,2.00
2022-12-02T00:04:36.741Z,1.90
2022-12-02T00:07:38.873Z,1.90
2022-12-02T00:10:41.041Z,1.90
2022-12-02T00:13:44.266Z,1.90
2022-12-02T00:16:46.356Z,1.90
2022-12-02T00:19:48.397Z,1.90
2022-12-02T00:22:50.485Z,2.00
2022-12-02T00:25:53.931Z,2.00
2022-12-02T00:28:56.113Z,2.00
2022-12-02T00:31:58.225Z,1.90
2022-12-02T00:35:00.262Z,1.90
2022-12-02T00:38:02.468Z,1.90
2022-12-02T00:41:04.617Z,1.90
2022-12-02T00:44:25.107Z,2.00
2022-12-02T00:47:27.146Z,2.00
2022-12-02T00:50:29.898Z,2.00
2022-12-02T00:53:31.997Z,2.10
2022-12-02T00:56:34.782Z,2.00
2022-12-02T00:59:36.768Z,2.10
2022-12-02T01:02:38.977Z,2.00
2022-12-02T01:05:41.403Z,2.00
2022-12-02T01:08:44.070Z,2.00
2022-12-02T01:11:46.124Z,2.00
2022-12-02T01:14:48.352Z,2.10
2022-12-02T01:17:50.744Z,2.10
2022-12-02T01:20:53.026Z,2.10
2022-12-02T01:23:55.190Z,2.10
2022-12-02T01:26:57.187Z,2.10
2022-12-02T01:29:59.398Z,2.00
2022-12-02T01:33:01.415Z,2.00
2022-12-02T01:36:03.628Z,2.00
2022-12-02T01:39:05.679Z,2.00
2022-12-02T01:42:08.385Z,2.00
2022-12-02T01:45:11.303Z,2.00
2022-12-02T01:48:13.436Z,2.10
2022-12-02T01:51:16.127Z,2.10
2022-12-02T01:54:18.550Z,2.10
2022-12-02T01:57:25.895Z,2.10
2022-12-02T02:00:28.535Z,2.10
2022-12-02T02:03:30.626Z,2.10
2022-12-02T02:06:37.641Z,2.10
2022-12-02T02:09:39.727Z,2.10
2022-12-02T02:12:41.949Z,2.10
2022-12-02T02:15:45.635Z,2.20
2022-12-02T02:18:47.716Z,2.10
2022-12-02T02:21:52.837Z,2.10
2022-12-02T02:24:54.915Z,2.10
2022-12-02T02:27:59.135Z,2.10
2022-12-02T02:31:01.579Z,2.10
2022-12-02T02:34:03.884Z,2.10
2022-12-02T02:37:06.061Z,2.10
2022-12-02T02:40:08.957Z,2.10
2022-12-02T02:43:11.510Z,2.10
2022-12-02T02:46:13.771Z,2.10
2022-12-02T02:49:16.211Z,2.10
2022-12-02T02:52:18.306Z,2.20
2022-12-02T02:55:23.875Z,2.10
2022-12-02T02:58:32.141Z,2.20
2022-12-02T03:01:36.552Z,2.20
2022-12-02T03:04:40.697Z,2.20
2022-12-02T03:07:43.189Z,2.10
2022-12-02T03:10:45.546Z,2.10
2022-12-02T03:13:50.441Z,2.10
2022-12-02T03:16:53.139Z,2.10
2022-12-02T03:19:55.662Z,2.20
2022-12-02T03:22:57.958Z,2.20
2022-12-02T03:26:01.366Z,2.10
2022-12-02T03:29:04.849Z,2.10
2022-12-02T03:32:10.704Z,2.10
2022-12-02T03:35:13.102Z,2.10
2022-12-02T03:38:15.549Z,2.10
2022-12-02T03:41:18.081Z,2.10
2022-12-02T03:44:20.100Z,2.10
2022-12-02T03:47:22.419Z,2.10
2022-12-02T03:50:24.496Z,2.10
2022-12-02T03:53:28.961Z,2.10
2022-12-02T03:56:36.260Z,2.00
2022-12-02T03:59:38.609Z,2.00
2022-12-02T04:02:40.875Z,2.00
2022-12-02T04:05:49.325Z,2.00
2022-12-02T04:08:52.312Z,1.90
2022-12-02T04:11:54.291Z,1.90
2022-12-02T04:14:56.383Z,1.90
2022-12-02T04:17:58.652Z,1.90
2022-12-02T04:21:00.694Z,1.80
2022-12-02T04:24:02.718Z,1.80
2022-12-02T04:27:04.838Z,1.80
2022-12-02T04:30:07.564Z,1.80
2022-12-02T04:33:09.639Z,1.80
2022-12-02T04:36:11.643Z,1.70
2022-12-02T04:39:13.892Z,1.70
2022-12-02T04:42:16.391Z,1.70
2022-12-02T04:45:18.396Z,1.70
2022-12-02T04:48:20.426Z,1.70
2022-12-02T04:51:22.549Z,1.70
2022-12-02T04:54:24.521Z,1.60
2022-12-02T04:57:31.107Z,1.60
2022-12-02T05:00:33.895Z,1.60
2022-12-02T05:03:35.984Z,1.60
2022-12-02T05:06:37.959Z,1.50
2022-12-02T05:09:39.959Z,1.50
2022-12-02T05:12:41.978Z,1.50
2022-12-02T05:15:44.013Z,1.50
2022-12-02T05:18:46.143Z,1.40
2022-12-02T05:21:48.224Z,1.40
2022-12-02T05:24:50.487Z,1.30
2022-12-02T05:27:52.638Z,1.30
2022-12-02T05:30:54.792Z,1.30
2022-12-02T05:33:56.811Z,1.30
2022-12-02T05:36:58.807Z,1.30
2022-12-02T05:40:01.296Z,1.30
2022-12-02T05:43:23.100Z,1.30
2022-12-02T05:46:25.206Z,1.30
2022-12-02T05:49:27.326Z,1.30
2022-12-02T05:52:30.200Z,1.20
2022-12-02T05:55:32.233Z,1.20
2022-12-02T05:58:34.357Z,1.20
2022-12-02T06:01:39.761Z,1.20
2022-12-02T06:04:41.797Z,1.20
2022-12-02T06:07:44.240Z,1.20
2022-12-02T06:10:52.189Z,1.20
2022-12-02T06:13:57.019Z,1.20
2022-12-02T06:17:01.906Z,1.30
2022-12-02T06:20:06.089Z,1.30
2022-12-02T06:23:19.583Z,1.30
2022-12-02T06:26:22.360Z,1.30
2022-12-02T06:29:25.457Z,1.40
2022-12-02T06:32:36.706Z,1.30
2022-12-02T06:35:38.757Z,1.30
2022-12-02T06:38:54.859Z,1.30
2022-12-02T06:41:56.914Z,1.30
2022-12-02T06:45:29.865Z,1.40
2022-12-02T06:48:34.435Z,1.30
2022-12-02T06:51:36.944Z,1.30
2022-12-02T06:54:39.291Z,1.30
2022-12-02T06:57:41.261Z,1.30
2022-12-02T07:00:43.731Z,1.30
2022-12-02T07:04:18.996Z,1.30
2022-12-02T07:07:22.322Z,1.40
2022-12-02T07:10:30.227Z,1.40
2022-12-02T07:13:32.681Z,1.40
2022-12-02T07:16:37.002Z,1.30
2022-12-02T07:19:45.757Z,1.30
2022-12-02T07:23:07.829Z,1.30
2022-12-02T07:26:11.836Z,1.30
2022-12-02T07:29:27.522Z,1.40
2022-12-02T07:32:29.501Z,1.40
2022-12-02T07:35:31.555Z,1.40
2022-12-02T07:39:04.283Z,1.40
2022-12-02T07:41:55.516Z,1.40
2022-12-02T07:44:57.460Z,1.50
2022-12-02T07:47:59.472Z,1.50
2022-12-02T07:51:01.884Z,1.40
2022-12-02T07:54:04.235Z,1.40
2022-12-02T07:57:06.278Z,1.40
2022-12-02T08:00:09.612Z,1.40
2022-12-02T08:03:12.010Z,1.40
2022-12-02T08:06:14.075Z,1.40
2022-12-02T08:09:16.466Z,1.40
2022-12-02T08:12:18.596Z,1.40
2022-12-02T08:15:20.617Z,1.40
2022-12-02T08:18:22.674Z,1.50
2022-12-02T08:21:24.874Z,1.50
2022-12-02T08:24:27.044Z,1.60
2022-12-02T08:27:29.059Z,1.60
2022-12-02T08:30:31.150Z,1.60
2022-12-02T08:33:33.213Z,1.60
2022-12-02T08:36:35.484Z,1.60
2022-12-02T08:39:38.239Z,1.70
2022-12-02T08:42:40.661Z,1.60
2022-12-02T08:45:43.235Z,1.60
2022-12-02T08:48:45.533Z,1.70
2022-12-02T08:51:47.880Z,1.60
2022-12-02T08:54:50.153Z,1.70
2022-12-02T08:57:52.466Z,1.70
2022-12-02T09:00:54.548Z,1.70
2022-12-02T09:03:56.610Z,1.80
2022-12-02T09:06:58.631Z,1.90
2022-12-02T09:10:01.466Z,1.90
2022-12-02T09:13:03.686Z,1.90
2022-12-02T09:16:06.151Z,2.00
2022-12-02T09:19:09.343Z,2.00
2022-12-02T09:22:11.409Z,2.00
2022-12-02T09:25:14.922Z,2.10
2022-12-02T09:28:17.110Z,2.20
2022-12-02T09:31:19.278Z,2.30
2022-12-02T09:34:21.273Z,2.40
2022-12-02T09:37:23.328Z,2.50
2022-12-02T09:40:25.917Z,2.50
2022-12-02T09:43:29.521Z,2.60
2022-12-02T09:46:32.129Z,2.60
2022-12-02T09:49:35.228Z,2.70
2022-12-02T09:52:37.614Z,2.70
2022-12-02T09:55:39.642Z,2.80
2022-12-02T09:58:42.640Z,2.80
2022-12-02T10:01:48.144Z,2.90
2022-12-02T10:04:50.629Z,2.80
2022-12-02T10:07:55.787Z,2.80
2022-12-02T10:10:58.721Z,2.80
2022-12-02T10:14:02.331Z,2.90
2022-12-02T10:17:16.192Z,2.90
2022-12-02T10:20:28.661Z,3.00
2022-12-02T10:23:33.771Z,3.00
2022-12-02T10:26:49.849Z,3.00
2022-12-02T10:29:52.073Z,2.90
2022-12-02T10:33:06.212Z,2.90
2022-12-02T10:36:10.361Z,2.90
2022-12-02T10:39:21.776Z,3.00
2022-12-02T10:42:24.142Z,3.10
2022-12-02T10:45:26.215Z,3.10
2022-12-02T10:48:28.194Z,3.10
2022-12-02T10:51:30.280Z,3.10
2022-12-02T10:54:39.570Z,3.20
2022-12-02T10:57:46.833Z,3.20
2022-12-02T11:00:48.946Z,3.20
2022-12-02T11:03:51.040Z,3.20
2022-12-02T11:06:54.801Z,3.30
2022-12-02T11:09:57.058Z,3.30
2022-12-02T11:13:04.464Z,3.40
2022-12-02T11:16:35.836Z,3.40
2022-12-02T11:19:45.123Z,3.40
2022-12-02T11:22:57.243Z,3.20
2022-12-02T11:26:05.845Z,3.20
2022-12-02T11:29:17.716Z,3.20
2022-12-02T11:32:22.999Z,3.20
2022-12-02T11:36:11.682Z,3.30
2022-12-02T11:39:40.917Z,3.30
2022-12-02T11:42:44.703Z,3.30
2022-12-02T11:45:46.775Z,3.40
2022-12-02T11:48:56.388Z,3.40
2022-12-02T11:52:11.897Z,3.40
2022-12-02T11:55:21.855Z,3.40
2022-12-02T11:58:35.083Z,3.40
2022-12-02T12:01:37.172Z,3.20
2022-12-02T12:04:39.196Z,3.20
2022-12-02T12:07:46.951Z,3.30
2022-12-02T12:11:15.282Z,3.30
2022-12-02T12:14:21.174Z,3.40
2022-12-02T12:17:44.533Z,3.30
2022-12-02T12:20:46.928Z,3.30
2022-12-02T12:23:48.988Z,3.40
2022-12-02T12:26:55.185Z,3.40
2022-12-02T12:29:57.273Z,3.40
2022-12-02T12:32:59.314Z,3.40
2022-12-02T12:36:01.337Z,3.40
2022-12-02T12:39:05.224Z,3.50
2022-12-02T12:42:07.254Z,3.50
2022-12-02T12:45:09.773Z,3.50
2022-12-02T12:48:11.915Z,3.50
2022-12-02T12:51:14.001Z,3.50
2022-12-02T12:54:16.099Z,3.50
2022-12-02T12:57:18.189Z,3.50
2022-12-02T13:00:20.833Z,3.50
2022-12-02T13:03:22.847Z,3.50
2022-12-02T13:06:25.097Z,3.50
2022-12-02T13:09:27.856Z,3.50
2022-12-02T13:12:29.865Z,3.50
2022-12-02T13:15:32.220Z,3.50
2022-12-02T13:18:34.503Z,3.50
2022-12-02T13:21:36.841Z,3.50
2022-12-02T13:24:43.119Z,3.50
2022-12-02T13:27:45.887Z,3.50
2022-12-02T13:30:48.431Z,3.40
2022-12-02T13:33:50.582Z,3.40
2022-12-02T13:36:52.771Z,3.40
2022-12-02T13:39:55.021Z,3.40
2022-12-02T13:42:57.794Z,3.40
2022-12-02T13:45:59.831Z,3.30
2022-12-02T13:49:02.013Z,3.30
2022-12-02T13:52:04.195Z,3.30
2022-12-02T13:55:06.688Z,3.30
2022-12-02T13:58:08.998Z,3.20
2022-12-02T14:01:12.329Z,3.30
2022-12-02T14:04:14.535Z,3.30
2022-12-02T14:07:16.582Z,3.20
2022-12-02T14:10:18.643Z,3.20
2022-12-02T14:13:21.485Z,3.20
2022-12-02T14:16:23.900Z,3.20
2022-12-02T14:19:26.003Z,3.20
2022-12-02T14:22:28.212Z,3.20
2022-12-02T14:25:30.285Z,3.20
2022-12-02T14:28:32.593Z,3.20
2022-12-02T14:31:34.733Z,3.20
2022-12-02T14:34:36.779Z,3.20
2022-12-02T14:37:38.796Z,3.20
2022-12-02T14:40:40.835Z,3.10
2022-12-02T14:43:42.834Z,3.10
2022-12-02T14:46:47.196Z,3.10
2022-12-02T14:49:49.583Z,3.10
2022-12-02T14:52:51.688Z,3.20
2022-12-02T14:55:54.173Z,3.20
2022-12-02T14:58:56.508Z,3.20
2022-12-02T15:01:58.838Z,3.10
2022-12-02T15:05:00.957Z,3.20
2022-12-02T15:08:03.105Z,3.20
2022-12-02T15:11:05.171Z,3.10
2022-12-02T15:14:07.236Z,3.20
2022-12-02T15:17:09.413Z,3.20
2022-12-02T15:20:12.416Z,3.20
2022-12-02T15:23:14.806Z,3.20
2022-12-02T15:26:16.869Z,3.20
2022-12-02T15:29:19.494Z,3.20
2022-12-02T15:32:21.600Z,3.20
2022-12-02T15:35:24.244Z,3.20
2022-12-02T15:38:29.598Z,3.20
2022-12-02T15:41:34.749Z,3.30
2022-12-02T15:44:36.821Z,3.20
2022-12-02T15:47:39.340Z,3.20
2022-12-02T15:50:41.452Z,3.20
2022-12-02T15:53:46.173Z,3.20
2022-12-02T15:56:54.186Z,3.20
2022-12-02T15:59:56.613Z,3.30
2022-12-02T16:02:58.865Z,3.20
2022-12-02T16:06:01.235Z,3.30
2022-12-02T16:09:03.892Z,3.30
2022-12-02T16:12:08.111Z,3.20
2022-12-02T16:15:11.147Z,3.30
2022-12-02T16:18:13.513Z,3.30
2022-12-02T16:21:16.159Z,3.30
2022-12-02T16:24:18.296Z,3.30
2022-12-02T16:27:20.790Z,3.30
2022-12-02T16:30:23.629Z,3.30
2022-12-02T16:33:25.722Z,3.30
2022-12-02T16:36:27.883Z,3.30
2022-12-02T16:39:30.325Z,3.30
2022-12-02T16:42:32.378Z,3.30
2022-12-02T16:45:35.362Z,3.30
2022-12-02T16:48:37.546Z,3.30
2022-12-02T16:51:39.649Z,3.30
2022-12-02T16:54:41.786Z,3.30
2022-12-02T16:57:43.981Z,3.30
2022-12-02T17:00:46.194Z,3.30
2022-12-02T17:03:48.213Z,3.30
2022-12-02T17:06:50.330Z,3.30
2022-12-02T17:09:52.712Z,3.30
2022-12-02T17:12:54.934Z,3.30
2022-12-02T17:15:57.031Z,3.30
2022-12-02T17:18:59.466Z,3.30
2022-12-02T17:22:02.143Z,3.30
2022-12-02T17:25:05.581Z,3.30
2022-12-02T17:28:07.773Z,3.30
2022-12-02T17:31:10.816Z,3.30
2022-12-02T17:34:13.800Z,3.30
2022-12-02T17:37:15.850Z,3.30
2022-12-02T17:40:18.536Z,3.30
2022-12-02T17:43:24.208Z,3.30
2022-12-02T17:46:26.487Z,3.30
2022-12-02T17:49:34.000Z,3.30
2022-12-02T17:52:36.547Z,3.30
2022-12-02T17:55:38.921Z,3.30
2022-12-02T17:58:41.210Z,3.30
2022-12-02T18:01:43.363Z,3.30
2022-12-02T18:04:45.446Z,3.30
2022-12-02T18:07:47.633Z,3.30
2022-12-02T18:10:50.549Z,3.30
2022-12-02T18:13:55.551Z,3.30
2022-12-02T18:17:01.541Z,3.30
2022-12-02T18:20:05.133Z,3.30
2022-12-02T18:23:07.332Z,3.30
2022-12-02T18:26:09.776Z,3.30
2022-12-02T18:29:12.452Z,3.30
2022-12-02T18:32:15.391Z,3.30
2022-12-02T18:35:18.349Z,3.30
2022-12-02T18:38:20.790Z,3.30
2022-12-02T18:41:23.324Z,3.30
2022-12-02T18:44:25.453Z,3.30
2022-12-02T18:47:27.837Z,3.30
2022-12-02T18:50:30.612Z,3.30
2022-12-02T18:53:33.245Z,3.30
2022-12-02T18:56:35.834Z,3.30
2022-12-02T18:59:38.995Z,3.30
2022-12-02T19:02:43.194Z,3.30
2022-12-02T19:05:45.797Z,3.30
2022-12-02T19:08:48.968Z,3.30
2022-12-02T19:11:51.497Z,3.30
2022-12-02T19:14:54.029Z,3.30
2022-12-02T19:17:56.121Z,3.30
2022-12-02T19:20:58.430Z,3.30
2022-12-02T19:24:00.827Z,3.30
2022-12-02T19:27:05.026Z,3.30
2022-12-02T19:30:08.715Z,3.30
2022-12-02T19:33:13.889Z,3.30
2022-12-02T19:36:16.748Z,3.30
2022-12-02T19:39:19.352Z,3.30
2022-12-02T19:42:22.165Z,3.30
2022-12-02T19:45:25.557Z,3.30
2022-12-02T19:48:27.863Z,3.30
2022-12-02T19:51:31.745Z,3.30
2022-12-02T19:54:34.858Z,3.30
2022-12-02T19:57:37.480Z,3.30
2022-12-02T20:00:40.221Z,3.30
2022-12-02T20:03:42.856Z,3.30
2022-12-02T20:06:45.035Z,3.30
2022-12-02T20:09:47.656Z,3.30
2022-12-02T20:12:50.413Z,3.30
2022-12-02T20:15:58.072Z,3.30
2022-12-02T20:19:01.299Z,3.30
2022-12-02T20:22:03.988Z,3.30
2022-12-02T20:25:06.781Z,3.30
2022-12-02T20:28:09.294Z,3.30
2022-12-02T20:31:11.867Z,3.30
2022-12-02T20:34:14.600Z,3.30
2022-12-02T20:37:16.740Z,3.30
2022-12-02T20:40:18.861Z,3.30
2022-12-02T20:43:21.282Z,3.40
2022-12-02T20:46:24.886Z,3.30
2022-12-02T20:49:27.766Z,3.40
2022-12-02T20:52:30.504Z,3.30
2022-12-02T20:55:32.779Z,3.40
2022-12-02T20:58:35.292Z,3.40
2022-12-02T21:01:37.988Z,3.30
2022-12-02T21:04:40.447Z,3.30
2022-12-02T21:07:42.614Z,3.40
2022-12-02T21:10:44.958Z,3.30
2022-12-02T21:13:47.122Z,3.30
2022-12-02T21:16:49.715Z,3.30
2022-12-02T21:19:53.042Z,3.30
2022-12-02T21:22:55.979Z,3.40
2022-12-02T21:25:58.522Z,3.40
2022-12-02T21:29:01.010Z,3.40
2022-12-02T21:32:03.641Z,3.40
2022-12-02T21:35:09.781Z,3.40
2022-12-02T21:38:12.323Z,3.30
2022-12-02T21:41:14.304Z,3.30
2022-12-02T21:44:16.381Z,3.30
2022-12-02T21:47:18.410Z,3.30
2022-12-02T21:50:20.592Z,3.30
2022-12-02T21:53:22.684Z,3.30
2022-12-02T21:56:24.698Z,3.40
2022-12-02T21:59:26.870Z,3.40
2022-12-02T22:02:29.037Z,3.30
2022-12-02T22:05:31.089Z,3.30
2022-12-02T22:08:33.121Z,3.30
2022-12-02T22:11:36.377Z,3.30
2022-12-02T22:14:38.488Z,3.30
2022-12-02T22:17:40.849Z,3.30
2022-12-02T22:20:42.866Z,3.30
2022-12-02T22:23:44.939Z,3.30
2022-12-02T22:26:46.929Z,3.30
2022-12-02T22:29:48.957Z,3.30
2022-12-02T22:32:50.940Z,3.30
2022-12-02T22:35:53.016Z,3.30
2022-12-02T22:38:55.080Z,3.40
2022-12-02T22:41:57.112Z,3.30
2022-12-02T22:44:59.088Z,3.30
2022-12-02T22:48:01.133Z,3.30
2022-12-02T22:51:03.197Z,3.30
2022-12-02T22:54:05.350Z,3.30
2022-12-02T22:57:07.333Z,3.30
2022-12-02T23:00:13.108Z,3.40
2022-12-02T23:03:15.881Z,3.40
2022-12-02T23:06:17.865Z,3.30
2022-12-02T23:09:19.850Z,3.40
2022-12-02T23:12:21.975Z,3.30
2022-12-02T23:15:39.835Z,3.40
2022-12-02T23:18:42.351Z,3.30
2022-12-02T23:21:44.570Z,3.30
2022-12-02T23:24:46.655Z,3.30
2022-12-02T23:27:48.621Z,3.30
2022-12-02T23:30:50.830Z,3.30
2022-12-02T23:33:52.989Z,3.30
2022-12-02T23:36:54.983Z,3.30
2022-12-02T23:39:57.088Z,3.30
2022-12-02T23:42:59.098Z,3.20
2022-12-02T23:46:01.185Z,3.20
2022-12-02T23:49:03.355Z,3.30
2022-12-02T23:52:05.487Z,3.20
2022-12-02T23:55:08.141Z,3.20
2022-12-02T23:58:10.456Z,3.30
